createdAt,value
2023-05-16T00:01:47.412Z,10.28
2023-05-16T00:04:15.261Z,10.30
2023-05-16T00:06:43.067Z,10.27
2023-05-16T00:09:11.104Z,10.20
2023-05-16T00:11:38.534Z,10.16
2023-05-16T00:14:06.044Z,10.16
2023-05-16T00:16:33.570Z,10.17
2023-05-16T00:19:01.427Z,10.14
2023-05-16T00:21:29.262Z,10.11
2023-05-16T00:23:56.492Z,10.06
2023-05-16T00:26:25.283Z,9.98
2023-05-16T00:28:52.690Z,9.97
2023-05-16T00:31:20.358Z,9.89
2023-05-16T00:33:48.309Z,9.86
2023-05-16T00:36:15.564Z,9.88
2023-05-16T00:38:43.032Z,9.86
2023-05-16T00:41:10.619Z,9.84
2023-05-16T00:43:40.062Z,9.81
2023-05-16T00:46:07.493Z,9.77
2023-05-16T00:48:36.300Z,9.77
2023-05-16T00:51:03.910Z,9.77
2023-05-16T00:53:31.244Z,9.70
2023-05-16T00:56:00.202Z,9.64
2023-05-16T00:58:30.337Z,9.63
2023-05-16T01:00:57.841Z,9.59
2023-05-16T01:03:26.002Z,9.54
2023-05-16T01:05:54.123Z,9.58
2023-05-16T01:08:21.859Z,9.56
2023-05-16T01:11:02.923Z,9.61
2023-05-16T01:13:46.570Z,9.62
2023-05-16T01:16:22.740Z,9.63
2023-05-16T01:19:06.549Z,9.68
2023-05-16T01:21:53.529Z,9.69
2023-05-16T01:24:42.180Z,9.72
2023-05-16T01:27:12.147Z,9.64
2023-05-16T01:29:39.644Z,9.65
2023-05-16T01:32:07.505Z,9.64
2023-05-16T01:34:35.643Z,9.63
2023-05-16T01:37:13.856Z,9.61
2023-05-16T01:40:06.177Z,9.62
2023-05-16T01:42:39.755Z,9.52
2023-05-16T01:45:18.826Z,9.49
2023-05-16T01:48:08.812Z,9.46
2023-05-16T01:50:46.690Z,9.38
2023-05-16T01:53:21.361Z,9.38
2023-05-16T01:55:52.317Z,9.29
2023-05-16T01:58:23.667Z,9.27
2023-05-16T02:01:00.364Z,9.25
2023-05-16T02:03:28.284Z,9.19
2023-05-16T02:05:55.712Z,9.15
2023-05-16T02:08:24.401Z,9.11
2023-05-16T02:10:52.410Z,9.04
2023-05-16T02:13:20.131Z,9.02
2023-05-16T02:15:47.621Z,9.03
2023-05-16T02:18:15.143Z,9.03
2023-05-16T02:20:43.993Z,9.08
2023-05-16T02:23:11.680Z,9.04
2023-05-16T02:25:39.377Z,9.03
2023-05-16T02:28:10.506Z,9.01
2023-05-16T02:30:37.903Z,9.03
2023-05-16T02:33:05.469Z,9.14
2023-05-16T02:35:32.994Z,9.14
2023-05-16T02:38:00.790Z,9.14
2023-05-16T02:40:28.362Z,9.18
2023-05-16T02:42:59.905Z,9.20
2023-05-16T02:45:27.647Z,9.22
2023-05-16T02:47:55.633Z,9.22
2023-05-16T02:50:23.317Z,9.16
2023-05-16T02:52:50.982Z,9.13
2023-05-16T02:55:22.075Z,9.08
2023-05-16T02:57:51.312Z,9.06
2023-05-16T03:00:19.937Z,9.06
2023-05-16T03:02:47.725Z,9.08
2023-05-16T03:05:15.712Z,9.13
2023-05-16T03:07:43.127Z,9.03
2023-05-16T03:10:11.313Z,9.06
2023-05-16T03:12:39.292Z,9.12
2023-05-16T03:15:09.387Z,9.13
2023-05-16T03:17:37.304Z,9.17
2023-05-16T03:20:05.391Z,9.20
2023-05-16T03:22:37.642Z,9.22
2023-05-16T03:25:05.854Z,9.22
2023-05-16T03:27:34.429Z,9.23
2023-05-16T03:30:02.648Z,9.31
2023-05-16T03:32:30.332Z,9.31
2023-05-16T03:34:57.802Z,9.34
2023-05-16T03:37:26.377Z,9.32
2023-05-16T03:39:53.780Z,9.32
2023-05-16T03:42:21.440Z,9.29
2023-05-16T03:44:48.789Z,9.32
2023-05-16T03:47:16.226Z,9.30
2023-05-16T03:49:43.533Z,9.33
2023-05-16T03:52:10.950Z,9.32
2023-05-16T03:54:38.409Z,9.31
2023-05-16T03:57:06.552Z,9.34
2023-05-16T03:59:34.862Z,9.38
2023-05-16T04:02:02.464Z,9.42
2023-05-16T04:04:29.824Z,9.43
2023-05-16T04:06:57.415Z,9.46
2023-05-16T04:09:24.838Z,9.49
2023-05-16T04:11:52.236Z,9.49
2023-05-16T04:14:19.614Z,9.53
2023-05-16T04:16:47.187Z,9.48
2023-05-16T04:19:14.825Z,9.46
2023-05-16T04:21:42.337Z,9.42
2023-05-16T04:24:09.742Z,9.42
2023-05-16T04:26:39.974Z,9.35
2023-05-16T04:29:07.306Z,9.34
2023-05-16T04:31:34.736Z,9.31
2023-05-16T04:34:02.735Z,9.29
2023-05-16T04:36:31.662Z,9.28
2023-05-16T04:38:59.192Z,9.27
2023-05-16T04:41:26.655Z,9.23
2023-05-16T04:43:54.598Z,9.24
2023-05-16T04:46:22.203Z,9.22
2023-05-16T04:48:49.564Z,9.25
2023-05-16T04:51:16.987Z,9.27
2023-05-16T04:53:44.409Z,9.25
2023-05-16T04:56:12.127Z,9.18
2023-05-16T04:58:41.070Z,9.18
2023-05-16T05:01:10.229Z,9.15
2023-05-16T05:03:37.970Z,9.12
2023-05-16T05:06:05.571Z,9.17
2023-05-16T05:08:34.108Z,9.12
2023-05-16T05:11:01.924Z,9.14
2023-05-16T05:13:29.261Z,9.09
2023-05-16T05:15:56.740Z,9.03
2023-05-16T05:18:24.197Z,8.95
2023-05-16T05:20:52.826Z,8.85
2023-05-16T05:23:20.990Z,8.75
2023-05-16T05:25:48.565Z,8.63
2023-05-16T05:28:16.454Z,8.60
2023-05-16T05:30:43.984Z,8.56
2023-05-16T05:33:12.379Z,8.63
2023-05-16T05:35:39.987Z,8.53
2023-05-16T05:38:07.674Z,8.39
2023-05-16T05:40:35.005Z,8.30
2023-05-16T05:43:02.426Z,8.20
2023-05-16T05:45:30.362Z,8.13
2023-05-16T05:47:57.957Z,8.10
2023-05-16T05:50:25.954Z,8.06
2023-05-16T05:52:53.455Z,8.06
2023-05-16T05:55:21.159Z,8.03
2023-05-16T05:57:48.591Z,8.09
2023-05-16T06:00:18.188Z,8.02
2023-05-16T06:02:49.654Z,8.03
2023-05-16T06:05:17.489Z,8.09
2023-05-16T06:07:45.210Z,8.03
2023-05-16T06:10:12.811Z,7.95
2023-05-16T06:12:40.275Z,7.99
2023-05-16T06:15:08.568Z,8.01
2023-05-16T06:17:36.829Z,8.04
2023-05-16T06:20:05.113Z,8.00
2023-05-16T06:22:33.409Z,7.94
2023-05-16T06:25:00.951Z,7.89
2023-05-16T06:27:28.981Z,7.78
2023-05-16T06:29:56.935Z,7.77
2023-05-16T06:32:24.415Z,7.69
2023-05-16T06:34:51.993Z,7.73
2023-05-16T06:37:19.455Z,7.66
2023-05-16T06:39:49.926Z,7.68
2023-05-16T06:42:17.987Z,7.62
2023-05-16T06:44:46.878Z,7.59
2023-05-16T06:47:14.402Z,7.64
2023-05-16T06:49:41.963Z,7.69
2023-05-16T06:52:10.047Z,7.76
2023-05-16T06:54:37.670Z,7.80
2023-05-16T06:57:05.702Z,7.75
2023-05-16T06:59:34.518Z,7.69
2023-05-16T07:02:02.413Z,7.67
2023-05-16T07:04:31.059Z,7.67
2023-05-16T07:06:58.780Z,7.67
2023-05-16T07:09:26.393Z,7.72
2023-05-16T07:11:53.936Z,7.69
2023-05-16T07:14:21.568Z,7.81
2023-05-16T07:16:49.244Z,7.88
2023-05-16T07:19:16.925Z,7.91
2023-05-16T07:21:44.566Z,7.90
2023-05-16T07:24:12.150Z,7.88
2023-05-16T07:26:48.164Z,7.90
2023-05-16T07:29:15.892Z,8.00
2023-05-16T07:31:43.694Z,7.91
2023-05-16T07:34:12.219Z,7.83
2023-05-16T07:36:39.882Z,7.84
2023-05-16T07:39:07.806Z,7.90
2023-05-16T07:41:35.210Z,7.90
2023-05-16T07:44:02.517Z,8.00
2023-05-16T07:46:30.453Z,7.85
2023-05-16T07:48:57.849Z,7.84
2023-05-16T07:51:25.541Z,7.84
2023-05-16T07:53:53.104Z,7.89
2023-05-16T07:56:20.915Z,7.87
2023-05-16T07:58:49.021Z,7.83
2023-05-16T08:01:17.199Z,7.82
2023-05-16T08:03:45.007Z,7.83
2023-05-16T08:06:12.754Z,7.81
2023-05-16T08:08:40.345Z,7.83
2023-05-16T08:11:08.270Z,7.82
2023-05-16T08:13:35.778Z,7.71
2023-05-16T08:16:03.674Z,7.73
2023-05-16T08:18:32.121Z,7.75
2023-05-16T08:20:59.695Z,7.77
2023-05-16T08:23:27.293Z,7.80
2023-05-16T08:25:55.091Z,7.81
2023-05-16T08:28:22.579Z,7.81
2023-05-16T08:30:50.173Z,7.83
2023-05-16T08:33:17.756Z,7.83
2023-05-16T08:35:46.486Z,7.88
2023-05-16T08:38:14.793Z,7.87
2023-05-16T08:40:43.755Z,7.91
2023-05-16T08:43:12.324Z,7.93
2023-05-16T08:45:42.534Z,7.94
2023-05-16T08:48:11.563Z,7.96
2023-05-16T08:50:39.295Z,7.97
2023-05-16T08:53:09.942Z,8.00
2023-05-16T08:55:38.926Z,8.01
2023-05-16T08:58:06.804Z,8.01
2023-05-16T09:00:35.675Z,8.09
2023-05-16T09:03:03.306Z,8.06
2023-05-16T09:05:31.371Z,8.19
2023-05-16T09:08:15.990Z,8.19
2023-05-16T09:11:05.575Z,8.13
2023-05-16T09:13:39.588Z,8.05
2023-05-16T09:16:09.948Z,8.08
2023-05-16T09:18:38.189Z,8.11
2023-05-16T09:21:07.772Z,8.06
2023-05-16T09:23:37.299Z,8.03
2023-05-16T09:26:10.833Z,8.03
2023-05-16T09:28:39.920Z,8.10
2023-05-16T09:31:28.068Z,8.12
2023-05-16T09:33:58.837Z,8.14
2023-05-16T09:36:26.564Z,8.14
2023-05-16T09:38:54.608Z,8.09
2023-05-16T09:41:23.686Z,8.19
2023-05-16T09:43:51.502Z,8.28
2023-05-16T09:46:21.106Z,8.29
2023-05-16T09:48:48.764Z,8.36
2023-05-16T09:51:16.499Z,8.44
2023-05-16T09:53:45.584Z,8.42
2023-05-16T09:56:14.914Z,8.43
2023-05-16T09:58:44.986Z,8.51
2023-05-16T10:01:15.180Z,8.68
2023-05-16T10:03:46.733Z,8.68
2023-05-16T10:06:16.780Z,8.66
2023-05-16T10:08:44.977Z,8.71
2023-05-16T10:11:13.659Z,8.76
2023-05-16T10:13:41.660Z,8.74
2023-05-16T10:16:12.685Z,8.76
2023-05-16T10:18:40.919Z,8.80
2023-05-16T10:21:13.698Z,8.87
2023-05-16T10:23:48.326Z,8.86
2023-05-16T10:26:17.516Z,8.76
2023-05-16T10:28:45.984Z,8.78
2023-05-16T10:31:15.453Z,8.78
2023-05-16T10:33:43.273Z,8.82
2023-05-16T10:36:12.349Z,8.91
2023-05-16T10:38:41.286Z,8.98
2023-05-16T10:41:09.810Z,9.07
2023-05-16T10:43:37.361Z,9.13
2023-05-16T10:46:08.292Z,9.34
2023-05-16T10:48:39.357Z,9.45
2023-05-16T10:51:32.990Z,9.57
2023-05-16T10:54:06.884Z,9.66
2023-05-16T10:56:35.568Z,9.80
2023-05-16T10:59:04.901Z,9.89
2023-05-16T11:01:36.389Z,10.06
2023-05-16T11:04:11.433Z,10.11
2023-05-16T11:06:42.015Z,10.21
2023-05-16T11:09:13.636Z,10.21
2023-05-16T11:11:53.604Z,10.21
2023-05-16T11:14:42.679Z,10.21
2023-05-16T11:17:11.522Z,10.19
2023-05-16T11:19:51.092Z,10.25
2023-05-16T11:22:33.239Z,10.48
2023-05-16T11:25:06.724Z,10.79
2023-05-16T11:27:45.118Z,11.23
2023-05-16T11:30:22.232Z,11.88
2023-05-16T11:32:50.806Z,12.03
2023-05-16T11:35:19.180Z,11.96
2023-05-16T11:37:47.886Z,12.13
2023-05-16T11:40:17.452Z,11.95
2023-05-16T11:42:47.774Z,11.80
2023-05-16T11:45:17.679Z,11.85
2023-05-16T11:47:48.073Z,11.81
2023-05-16T11:50:22.365Z,11.60
2023-05-16T11:52:57.249Z,11.55
2023-05-16T11:58:05.441Z,11.65
2023-05-16T12:00:32.913Z,11.58
2023-05-16T12:03:04.753Z,11.75
2023-05-16T12:05:34.347Z,11.79
2023-05-16T12:08:05.813Z,11.89
2023-05-16T12:10:36.289Z,11.82
2023-05-16T12:13:04.335Z,11.61
2023-05-16T12:15:32.312Z,11.33
2023-05-16T12:18:00.121Z,11.03
2023-05-16T12:20:27.815Z,10.88
2023-05-16T12:22:58.152Z,10.75
2023-05-16T12:25:33.282Z,10.64
2023-05-16T12:28:02.697Z,10.53
2023-05-16T12:30:32.401Z,10.63
2023-05-16T12:33:18.176Z,10.79
2023-05-16T12:35:47.843Z,10.96
2023-05-16T12:38:17.629Z,11.12
2023-05-16T12:40:46.094Z,11.20
2023-05-16T12:43:20.827Z,11.13
2023-05-16T12:45:56.669Z,10.93
2023-05-16T12:48:30.058Z,10.94
2023-05-16T12:50:57.659Z,11.04
2023-05-16T12:53:25.572Z,10.86
2023-05-16T12:55:52.889Z,10.69
2023-05-16T12:58:20.323Z,10.55
2023-05-16T13:00:48.826Z,10.50
2023-05-16T13:03:16.973Z,10.46
2023-05-16T13:05:45.028Z,10.48
2023-05-16T13:08:12.528Z,10.65
2023-05-16T13:10:39.950Z,10.66
2023-05-16T13:13:07.907Z,10.71
2023-05-16T13:15:35.479Z,10.74
2023-05-16T13:18:02.982Z,10.83
2023-05-16T13:20:30.902Z,10.93
2023-05-16T13:22:58.378Z,11.05
2023-05-16T13:25:26.294Z,11.40
2023-05-16T13:27:54.032Z,11.71
2023-05-16T13:30:21.444Z,12.06
2023-05-16T13:32:48.935Z,12.08
2023-05-16T13:35:18.453Z,12.02
2023-05-16T13:37:46.039Z,11.75
2023-05-16T13:40:13.791Z,11.39
2023-05-16T13:42:41.335Z,11.17
2023-05-16T13:45:10.071Z,11.02
2023-05-16T13:47:37.763Z,10.76
2023-05-16T13:50:09.487Z,10.59
2023-05-16T13:52:38.497Z,10.51
2023-05-16T13:55:06.820Z,10.46
2023-05-16T13:57:34.990Z,10.36
2023-05-16T14:02:40.943Z,10.28
2023-05-16T14:05:10.246Z,10.25
2023-05-16T14:07:37.869Z,10.27
2023-05-16T14:10:07.304Z,10.27
2023-05-16T14:12:35.201Z,10.23
2023-05-16T14:15:02.712Z,10.17
2023-05-16T14:17:30.260Z,10.15
2023-05-16T14:19:57.864Z,10.04
2023-05-16T14:22:25.482Z,10.02
2023-05-16T14:24:53.386Z,9.95
2023-05-16T14:27:20.975Z,9.96
2023-05-16T14:29:49.014Z,9.97
2023-05-16T14:32:16.383Z,9.94
2023-05-16T14:34:44.139Z,9.86
2023-05-16T14:37:11.626Z,9.83
2023-05-16T14:39:39.109Z,9.77
2023-05-16T14:42:08.589Z,9.71
2023-05-16T14:44:36.370Z,9.68
2023-05-16T14:47:04.633Z,9.65
2023-05-16T14:49:32.407Z,9.69
2023-05-16T14:51:59.759Z,9.74
2023-05-16T14:54:30.240Z,9.76
2023-05-16T14:57:00.179Z,9.78
2023-05-16T14:59:28.119Z,9.80
2023-05-16T15:01:55.909Z,9.83
2023-05-16T15:04:23.421Z,9.88
2023-05-16T15:06:51.380Z,9.98
2023-05-16T15:09:19.349Z,9.94
2023-05-16T15:11:46.697Z,10.02
2023-05-16T15:14:14.144Z,10.11
2023-05-16T15:16:42.457Z,10.07
2023-05-16T15:19:10.143Z,10.06
2023-05-16T15:21:37.656Z,10.03
2023-05-16T15:24:05.617Z,10.08
2023-05-16T15:26:33.143Z,10.04
2023-05-16T15:29:00.482Z,10.05
2023-05-16T15:31:28.006Z,10.13
2023-05-16T15:33:55.478Z,10.21
2023-05-16T15:36:23.383Z,10.27
2023-05-16T15:38:51.468Z,10.38
2023-05-16T15:41:31.921Z,10.44
2023-05-16T15:44:06.712Z,10.56
2023-05-16T15:46:34.419Z,10.69
2023-05-16T15:49:02.172Z,10.75
2023-05-16T15:51:29.629Z,10.81
2023-05-16T15:53:57.297Z,10.80
2023-05-16T15:56:24.909Z,10.87
2023-05-16T15:58:52.352Z,10.91
2023-05-16T16:01:20.006Z,11.03
2023-05-16T16:03:47.912Z,11.06
2023-05-16T16:06:16.472Z,11.03
2023-05-16T16:08:43.911Z,11.05
2023-05-16T16:11:11.314Z,11.09
2023-05-16T16:13:38.844Z,11.13
2023-05-16T16:16:07.529Z,11.22
2023-05-16T16:18:35.250Z,11.44
2023-05-16T16:21:02.734Z,11.67
2023-05-16T16:23:31.798Z,11.82
2023-05-16T16:25:59.367Z,12.07
2023-05-16T16:28:27.140Z,12.14
2023-05-16T16:30:54.952Z,12.19
2023-05-16T16:33:22.469Z,12.23
2023-05-16T16:35:51.972Z,12.17
2023-05-16T16:38:19.489Z,12.25
2023-05-16T16:40:47.075Z,12.53
2023-05-16T16:43:15.258Z,12.75
2023-05-16T16:45:42.895Z,12.76
2023-05-16T16:48:10.981Z,12.94
2023-05-16T16:50:38.597Z,12.98
2023-05-16T16:53:06.076Z,12.79
2023-05-16T16:55:33.863Z,12.70
2023-05-16T16:58:02.393Z,12.52
2023-05-16T17:00:30.064Z,12.38
2023-05-16T17:02:58.842Z,12.28
2023-05-16T17:05:26.883Z,12.06
2023-05-16T17:07:54.425Z,11.80
2023-05-16T17:10:22.601Z,11.59
2023-05-16T17:12:50.777Z,11.46
2023-05-16T17:15:18.490Z,11.43
2023-05-16T17:17:52.974Z,11.34
2023-05-16T17:20:20.650Z,11.39
2023-05-16T17:22:48.906Z,11.60
2023-05-16T17:25:16.560Z,11.70
2023-05-16T17:27:44.981Z,11.82
2023-05-16T17:30:12.904Z,11.95
2023-05-16T17:32:41.002Z,12.05
2023-05-16T17:35:08.885Z,12.22
2023-05-16T17:37:36.459Z,12.11
2023-05-16T17:40:06.007Z,12.14
2023-05-16T17:42:33.645Z,12.33
2023-05-16T17:45:07.203Z,12.39
2023-05-16T17:47:34.946Z,12.54
2023-05-16T17:50:05.064Z,12.51
2023-05-16T17:52:33.346Z,12.41
2023-05-16T17:55:00.842Z,12.32
2023-05-16T17:57:28.750Z,12.21
2023-05-16T17:59:56.316Z,12.10
2023-05-16T18:02:24.299Z,11.98
2023-05-16T18:04:51.780Z,11.86
2023-05-16T18:07:19.159Z,11.86
2023-05-16T18:09:46.708Z,11.82
2023-05-16T18:12:14.743Z,11.84
2023-05-16T18:14:45.181Z,11.84
2023-05-16T18:17:13.723Z,11.89
2023-05-16T18:19:41.798Z,11.88
2023-05-16T18:22:12.488Z,11.80
2023-05-16T18:24:40.323Z,11.63
2023-05-16T18:27:09.374Z,11.42
2023-05-16T18:29:37.788Z,11.23
2023-05-16T18:32:05.871Z,11.08
2023-05-16T18:34:37.109Z,10.97
2023-05-16T18:37:05.124Z,10.92
2023-05-16T18:39:33.229Z,10.83
2023-05-16T18:42:00.903Z,10.73
2023-05-16T18:44:28.611Z,10.68
2023-05-16T18:46:59.928Z,10.63
2023-05-16T18:49:33.508Z,10.53
2023-05-16T18:52:01.505Z,10.42
2023-05-16T18:54:31.001Z,10.33
2023-05-16T18:56:59.162Z,10.18
2023-05-16T18:59:27.053Z,10.02
2023-05-16T19:01:55.142Z,9.94
2023-05-16T19:04:23.023Z,9.91
2023-05-16T19:06:52.011Z,9.80
2023-05-16T19:09:19.625Z,9.78
2023-05-16T19:11:50.456Z,9.62
2023-05-16T19:14:18.309Z,9.59
2023-05-16T19:16:46.160Z,9.61
2023-05-16T19:19:13.793Z,9.55
2023-05-16T19:21:41.583Z,9.40
2023-05-16T19:24:09.389Z,9.34
2023-05-16T19:26:36.905Z,9.26
2023-05-16T19:29:04.564Z,9.19
2023-05-16T19:31:32.396Z,9.04
2023-05-16T19:34:02.123Z,8.95
2023-05-16T19:36:30.374Z,8.96
2023-05-16T19:38:59.201Z,9.00
2023-05-16T19:41:27.898Z,8.93
2023-05-16T19:43:56.040Z,8.83
2023-05-16T19:46:23.904Z,8.74
2023-05-16T19:48:51.681Z,8.71
2023-05-16T19:51:26.672Z,8.68
2023-05-16T19:54:05.093Z,8.62
2023-05-16T19:56:32.842Z,8.56
2023-05-16T19:59:00.453Z,8.44
2023-05-16T20:01:28.003Z,8.41
2023-05-16T20:03:55.528Z,8.31
2023-05-16T20:06:23.232Z,8.26
2023-05-16T20:08:51.615Z,8.20
2023-05-16T20:11:19.970Z,8.20
2023-05-16T20:13:47.417Z,8.16
2023-05-16T20:16:15.012Z,8.06
2023-05-16T20:18:42.757Z,8.02
2023-05-16T20:21:10.320Z,8.06
2023-05-16T20:23:39.500Z,8.01
2023-05-16T20:26:07.043Z,7.91
2023-05-16T20:28:34.495Z,7.85
2023-05-16T20:31:02.566Z,7.74
2023-05-16T20:33:30.223Z,7.67
2023-05-16T20:35:57.872Z,7.69
2023-05-16T20:38:25.407Z,7.63
2023-05-16T20:40:53.118Z,7.64
2023-05-16T20:43:20.863Z,7.58
2023-05-16T20:45:48.359Z,7.57
2023-05-16T20:48:16.217Z,7.50
2023-05-16T20:50:43.552Z,7.46
2023-05-16T20:53:10.961Z,7.36
2023-05-16T20:55:38.410Z,7.41
2023-05-16T20:58:06.290Z,7.37
2023-05-16T21:00:33.810Z,7.30
2023-05-16T21:03:01.355Z,7.22
2023-05-16T21:05:29.400Z,7.19
2023-05-16T21:07:56.946Z,7.11
2023-05-16T21:10:24.430Z,7.00
2023-05-16T21:12:51.998Z,6.95
2023-05-16T21:15:23.087Z,6.89
2023-05-16T21:17:51.645Z,6.86
2023-05-16T21:20:19.341Z,6.79
2023-05-16T21:22:46.946Z,6.84
2023-05-16T21:25:14.408Z,6.91
2023-05-16T21:27:41.807Z,6.93
2023-05-16T21:30:09.883Z,6.90
2023-05-16T21:32:37.561Z,6.84
2023-05-16T21:35:06.932Z,6.84
2023-05-16T21:37:34.651Z,6.78
2023-05-16T21:40:02.958Z,6.69
2023-05-16T21:42:30.943Z,6.69
2023-05-16T21:44:58.304Z,6.65
2023-05-16T21:47:26.420Z,6.62
2023-05-16T21:49:53.800Z,6.56
2023-05-16T21:52:21.512Z,6.54
2023-05-16T21:54:51.957Z,6.44
2023-05-16T21:57:19.879Z,6.37
2023-05-16T21:59:50.399Z,6.32
2023-05-16T22:02:22.877Z,6.22
2023-05-16T22:04:52.383Z,6.25
2023-05-16T22:07:20.081Z,6.28
2023-05-16T22:09:51.106Z,6.27
2023-05-16T22:12:18.533Z,6.24
2023-05-16T22:14:46.249Z,6.17
2023-05-16T22:17:13.671Z,6.19
2023-05-16T22:19:42.493Z,6.14
2023-05-16T22:22:11.404Z,6.13
2023-05-16T22:24:38.957Z,6.14
2023-05-16T22:27:06.782Z,6.10
2023-05-16T22:29:38.485Z,6.05
2023-05-16T22:32:07.593Z,6.04
2023-05-16T22:34:36.280Z,5.99
2023-05-16T22:37:03.682Z,6.00
2023-05-16T22:39:31.254Z,5.85
2023-05-16T22:41:59.541Z,5.80
2023-05-16T22:44:28.354Z,5.77
2023-05-16T22:46:55.844Z,5.76
2023-05-16T22:49:23.997Z,5.67
2023-05-16T22:51:51.933Z,5.60
2023-05-16T22:54:19.230Z,5.55
2023-05-16T22:56:46.576Z,5.58
2023-05-16T22:59:13.981Z,5.59
2023-05-16T23:01:41.547Z,5.52
2023-05-16T23:04:09.075Z,5.48
2023-05-16T23:06:36.560Z,5.45
2023-05-16T23:09:04.937Z,5.41
2023-05-16T23:11:33.275Z,5.41
2023-05-16T23:14:00.906Z,5.30
2023-05-16T23:16:28.355Z,5.16
2023-05-16T23:18:56.371Z,5.04
2023-05-16T23:21:23.804Z,5.01
2023-05-16T23:23:51.176Z,4.87
2023-05-16T23:26:19.011Z,4.81
2023-05-16T23:28:47.120Z,4.69
2023-05-16T23:31:14.575Z,4.70
2023-05-16T23:33:42.001Z,4.70
2023-05-16T23:36:10.163Z,4.74
2023-05-16T23:38:37.778Z,4.71
2023-05-16T23:41:05.289Z,4.71
2023-05-16T23:43:32.976Z,4.72
2023-05-16T23:46:00.386Z,4.66
2023-05-16T23:48:28.464Z,4.65
2023-05-16T23:50:56.318Z,4.68
2023-05-16T23:53:29.028Z,4.67
2023-05-16T23:55:56.553Z,4.67
2023-05-16T23:58:24.129Z,4.58
